sensor_id;sensor_type;location;lat;lon;timestamp;P1;durP1;ratioP1;P2;durP2;ratioP2
70148;SDS011;57514;52.164;5.282;2022-10-18T00:01:27;112.47;;;15.10;;
70148;SDS011;57514;52.164;5.282;2022-10-18T00:03:55;190.82;;;16.33;;
70148;SDS011;57514;52.164;5.282;2022-10-18T00:06:22;60.10;;;12.90;;
70148;SDS011;57514;52.164;5.282;2022-10-18T00:08:49;154.55;;;14.75;;
70148;SDS011;57514;52.164;5.282;2022-10-18T00:11:16;46.85;;;11.70;;
70148;SDS011;57514;52.164;5.282;2022-10-18T00:13:43;66.40;;;12.73;;
70148;SDS011;57514;52.164;5.282;2022-10-18T00:16:12;72.53;;;12.25;;
70148;SDS011;57514;52.164;5.282;2022-10-18T00:18:39;62.85;;;12.40;;
70148;SDS011;57514;52.164;5.282;2022-10-18T00:21:07;65.10;;;11.95;;
70148;SDS011;57514;52.164;5.282;2022-10-18T00:23:36;64.50;;;14.05;;
70148;SDS011;57514;52.164;5.282;2022-10-18T00:26:10;78.90;;;11.68;;
70148;SDS011;57514;52.164;5.282;2022-10-18T00:28:37;94.65;;;14.23;;
70148;SDS011;57514;52.164;5.282;2022-10-18T00:31:09;88.70;;;14.30;;
70148;SDS011;57514;52.164;5.282;2022-10-18T00:33:36;137.98;;;14.57;;
70148;SDS011;57514;52.164;5.282;2022-10-18T00:36:04;102.65;;;13.82;;
70148;SDS011;57514;52.164;5.282;2022-10-18T00:38:31;100.60;;;13.95;;
70148;SDS011;57514;52.164;5.282;2022-10-18T00:40:58;103.88;;;14.18;;
70148;SDS011;57514;52.164;5.282;2022-10-18T00:43:25;145.35;;;15.13;;
70148;SDS011;57514;52.164;5.282;2022-10-18T00:45:52;64.95;;;12.93;;
70148;SDS011;57514;52.164;5.282;2022-10-18T00:48:20;132.25;;;14.43;;
70148;SDS011;57514;52.164;5.282;2022-10-18T00:50:47;75.72;;;12.52;;
70148;SDS011;57514;52.164;5.282;2022-10-18T00:53:17;85.60;;;14.05;;
70148;SDS011;57514;52.164;5.282;2022-10-18T00:55:44;73.28;;;12.38;;
70148;SDS011;57514;52.164;5.282;2022-10-18T00:58:13;64.22;;;12.02;;
70148;SDS011;57514;52.164;5.282;2022-10-18T01:00:41;74.68;;;12.80;;
70148;SDS011;57514;52.164;5.282;2022-10-18T01:03:08;175.10;;;15.73;;
70148;SDS011;57514;52.164;5.282;2022-10-18T01:05:36;134.32;;;13.85;;
70148;SDS011;57514;52.164;5.282;2022-10-18T01:08:24;187.48;;;15.30;;
70148;SDS011;57514;52.164;5.282;2022-10-18T01:11:37;44.97;;;10.13;;
70148;SDS011;57514;52.164;5.282;2022-10-18T01:16:26;38.88;;;9.27;;
70148;SDS011;57514;52.164;5.282;2022-10-18T01:30:06;30.38;;;9.75;;
70148;SDS011;57514;52.164;5.282;2022-10-18T01:32:38;24.77;;;9.77;;
70148;SDS011;57514;52.164;5.282;2022-10-18T01:35:09;25.65;;;8.95;;
70148;SDS011;57514;52.164;5.282;2022-10-18T01:37:38;23.38;;;9.48;;
70148;SDS011;57514;52.164;5.282;2022-10-18T01:40:06;25.90;;;9.80;;
70148;SDS011;57514;52.164;5.282;2022-10-18T01:42:34;30.52;;;9.60;;
70148;SDS011;57514;52.164;5.282;2022-10-18T01:45:01;23.92;;;8.60;;
70148;SDS011;57514;52.164;5.282;2022-10-18T01:47:29;21.20;;;8.43;;
70148;SDS011;57514;52.164;5.282;2022-10-18T01:50:02;55.75;;;9.32;;
70148;SDS011;57514;52.164;5.282;2022-10-18T01:52:29;133.98;;;8.65;;
70148;SDS011;57514;52.164;5.282;2022-10-18T01:54:57;56.63;;;7.72;;
70148;SDS011;57514;52.164;5.282;2022-10-18T02:00:24;20.25;;;6.72;;
70148;SDS011;57514;52.164;5.282;2022-10-18T02:03:09;17.45;;;6.55;;
70148;SDS011;57514;52.164;5.282;2022-10-18T02:05:47;21.58;;;7.10;;
70148;SDS011;57514;52.164;5.282;2022-10-18T02:13:22;44.72;;;9.05;;
70148;SDS011;57514;52.164;5.282;2022-10-18T02:15:53;27.00;;;7.07;;
70148;SDS011;57514;52.164;5.282;2022-10-18T02:18:24;30.45;;;7.40;;
70148;SDS011;57514;52.164;5.282;2022-10-18T02:20:51;33.88;;;8.90;;
70148;SDS011;57514;52.164;5.282;2022-10-18T02:23:20;39.75;;;8.88;;
70148;SDS011;57514;52.164;5.282;2022-10-18T02:25:48;35.60;;;8.00;;
70148;SDS011;57514;52.164;5.282;2022-10-18T02:28:15;25.55;;;8.68;;
70148;SDS011;57514;52.164;5.282;2022-10-18T02:30:44;29.13;;;9.45;;
70148;SDS011;57514;52.164;5.282;2022-10-18T02:33:15;34.35;;;8.80;;
70148;SDS011;57514;52.164;5.282;2022-10-18T02:35:44;33.33;;;9.85;;
70148;SDS011;57514;52.164;5.282;2022-10-18T02:38:13;35.22;;;9.85;;
70148;SDS011;57514;52.164;5.282;2022-10-18T02:40:42;37.10;;;9.98;;
70148;SDS011;57514;52.164;5.282;2022-10-18T02:43:10;54.65;;;9.93;;
70148;SDS011;57514;52.164;5.282;2022-10-18T02:45:37;116.00;;;11.77;;
70148;SDS011;57514;52.164;5.282;2022-10-18T02:48:04;76.80;;;11.27;;
70148;SDS011;57514;52.164;5.282;2022-10-18T02:50:32;48.65;;;10.18;;
70148;SDS011;57514;52.164;5.282;2022-10-18T02:52:59;64.82;;;10.13;;
70148;SDS011;57514;52.164;5.282;2022-10-18T02:55:26;80.90;;;11.13;;
70148;SDS011;57514;52.164;5.282;2022-10-18T02:57:58;45.00;;;9.27;;
70148;SDS011;57514;52.164;5.282;2022-10-18T03:00:25;25.42;;;9.85;;
70148;SDS011;57514;52.164;5.282;2022-10-18T03:02:52;28.35;;;9.75;;
70148;SDS011;57514;52.164;5.282;2022-10-18T03:05:20;29.95;;;9.38;;
70148;SDS011;57514;52.164;5.282;2022-10-18T03:07:47;24.48;;;9.38;;
70148;SDS011;57514;52.164;5.282;2022-10-18T03:10:14;20.83;;;8.55;;
70148;SDS011;57514;52.164;5.282;2022-10-18T03:12:41;30.05;;;9.75;;
70148;SDS011;57514;52.164;5.282;2022-10-18T03:15:08;23.00;;;8.77;;
70148;SDS011;57514;52.164;5.282;2022-10-18T03:17:35;20.33;;;8.68;;
70148;SDS011;57514;52.164;5.282;2022-10-18T03:20:02;19.77;;;8.93;;
70148;SDS011;57514;52.164;5.282;2022-10-18T03:22:29;24.80;;;9.15;;
70148;SDS011;57514;52.164;5.282;2022-10-18T03:24:56;22.48;;;9.15;;
70148;SDS011;57514;52.164;5.282;2022-10-18T03:27:23;24.52;;;8.45;;
70148;SDS011;57514;52.164;5.282;2022-10-18T03:29:51;26.52;;;9.43;;
70148;SDS011;57514;52.164;5.282;2022-10-18T03:32:18;21.75;;;9.32;;
70148;SDS011;57514;52.164;5.282;2022-10-18T03:34:45;19.25;;;8.00;;
70148;SDS011;57514;52.164;5.282;2022-10-18T03:37:12;22.55;;;8.85;;
70148;SDS011;57514;52.164;5.282;2022-10-18T03:39:39;20.00;;;8.15;;
70148;SDS011;57514;52.164;5.282;2022-10-18T03:42:06;19.17;;;8.45;;
70148;SDS011;57514;52.164;5.282;2022-10-18T03:44:33;19.70;;;8.18;;
70148;SDS011;57514;52.164;5.282;2022-10-18T03:47:01;19.58;;;8.43;;
70148;SDS011;57514;52.164;5.282;2022-10-18T03:49:28;20.13;;;8.00;;
70148;SDS011;57514;52.164;5.282;2022-10-18T03:51:55;20.42;;;7.32;;
70148;SDS011;57514;52.164;5.282;2022-10-18T03:54:22;27.52;;;7.75;;
70148;SDS011;57514;52.164;5.282;2022-10-18T03:56:49;19.58;;;8.50;;
70148;SDS011;57514;52.164;5.282;2022-10-18T03:59:16;20.88;;;8.65;;
70148;SDS011;57514;52.164;5.282;2022-10-18T04:01:44;27.45;;;9.02;;
70148;SDS011;57514;52.164;5.282;2022-10-18T04:04:11;29.70;;;9.68;;
70148;SDS011;57514;52.164;5.282;2022-10-18T04:06:38;53.85;;;10.32;;
70148;SDS011;57514;52.164;5.282;2022-10-18T04:09:05;63.47;;;10.40;;
70148;SDS011;57514;52.164;5.282;2022-10-18T04:11:35;58.63;;;10.10;;
70148;SDS011;57514;52.164;5.282;2022-10-18T04:14:02;44.47;;;9.77;;
70148;SDS011;57514;52.164;5.282;2022-10-18T04:16:29;77.65;;;10.07;;
70148;SDS011;57514;52.164;5.282;2022-10-18T04:18:56;80.97;;;10.70;;
70148;SDS011;57514;52.164;5.282;2022-10-18T04:21:24;85.45;;;10.38;;
70148;SDS011;57514;52.164;5.282;2022-10-18T04:23:51;78.05;;;10.18;;
70148;SDS011;57514;52.164;5.282;2022-10-18T04:26:18;86.68;;;10.50;;
70148;SDS011;57514;52.164;5.282;2022-10-18T04:28:45;47.05;;;9.27;;
70148;SDS011;57514;52.164;5.282;2022-10-18T04:31:12;39.15;;;8.52;;
70148;SDS011;57514;52.164;5.282;2022-10-18T04:33:39;39.72;;;8.70;;
70148;SDS011;57514;52.164;5.282;2022-10-18T04:36:06;35.22;;;9.50;;
70148;SDS011;57514;52.164;5.282;2022-10-18T04:38:34;50.00;;;9.75;;
70148;SDS011;57514;52.164;5.282;2022-10-18T04:41:01;37.72;;;9.40;;
70148;SDS011;57514;52.164;5.282;2022-10-18T04:43:28;68.20;;;9.38;;
70148;SDS011;57514;52.164;5.282;2022-10-18T04:45:55;90.82;;;11.02;;
70148;SDS011;57514;52.164;5.282;2022-10-18T04:48:22;71.35;;;10.20;;
70148;SDS011;57514;52.164;5.282;2022-10-18T04:50:49;41.65;;;8.50;;
70148;SDS011;57514;52.164;5.282;2022-10-18T04:53:17;39.03;;;9.40;;
70148;SDS011;57514;52.164;5.282;2022-10-18T04:55:44;110.40;;;12.18;;
70148;SDS011;57514;52.164;5.282;2022-10-18T04:58:12;54.58;;;10.45;;
70148;SDS011;57514;52.164;5.282;2022-10-18T05:00:39;53.95;;;10.30;;
70148;SDS011;57514;52.164;5.282;2022-10-18T05:03:07;67.00;;;11.20;;
70148;SDS011;57514;52.164;5.282;2022-10-18T05:05:35;38.05;;;9.48;;
70148;SDS011;57514;52.164;5.282;2022-10-18T05:08:22;101.32;;;10.52;;
70148;SDS011;57514;52.164;5.282;2022-10-18T05:10:49;89.57;;;10.27;;
70148;SDS011;57514;52.164;5.282;2022-10-18T05:13:16;68.10;;;10.48;;
70148;SDS011;57514;52.164;5.282;2022-10-18T05:15:45;84.70;;;10.75;;
70148;SDS011;57514;52.164;5.282;2022-10-18T05:18:12;85.75;;;10.82;;
70148;SDS011;57514;52.164;5.282;2022-10-18T05:20:39;126.15;;;13.43;;
70148;SDS011;57514;52.164;5.282;2022-10-18T05:23:06;110.85;;;11.13;;
70148;SDS011;57514;52.164;5.282;2022-10-18T05:28:04;96.32;;;10.70;;
70148;SDS011;57514;52.164;5.282;2022-10-18T05:30:40;50.13;;;9.65;;
70148;SDS011;57514;52.164;5.282;2022-10-18T05:33:08;82.38;;;10.15;;
70148;SDS011;57514;52.164;5.282;2022-10-18T05:35:35;71.57;;;9.00;;
70148;SDS011;57514;52.164;5.282;2022-10-18T05:38:03;58.55;;;9.85;;
70148;SDS011;57514;52.164;5.282;2022-10-18T05:40:31;54.88;;;9.73;;
70148;SDS011;57514;52.164;5.282;2022-10-18T05:42:58;62.20;;;10.10;;
70148;SDS011;57514;52.164;5.282;2022-10-18T05:45:26;36.10;;;8.23;;
70148;SDS011;57514;52.164;5.282;2022-10-18T05:47:56;69.72;;;10.00;;
70148;SDS011;57514;52.164;5.282;2022-10-18T05:50:23;65.18;;;8.57;;
70148;SDS011;57514;52.164;5.282;2022-10-18T05:52:50;50.20;;;10.50;;
70148;SDS011;57514;52.164;5.282;2022-10-18T05:55:17;45.55;;;9.20;;
70148;SDS011;57514;52.164;5.282;2022-10-18T05:57:47;71.25;;;9.98;;
70148;SDS011;57514;52.164;5.282;2022-10-18T06:00:15;53.38;;;9.27;;
70148;SDS011;57514;52.164;5.282;2022-10-18T06:02:42;29.52;;;8.02;;
70148;SDS011;57514;52.164;5.282;2022-10-18T06:05:09;34.42;;;8.55;;
70148;SDS011;57514;52.164;5.282;2022-10-18T06:07:37;25.25;;;8.30;;
70148;SDS011;57514;52.164;5.282;2022-10-18T06:10:04;38.05;;;8.48;;
70148;SDS011;57514;52.164;5.282;2022-10-18T06:12:31;51.80;;;9.50;;
70148;SDS011;57514;52.164;5.282;2022-10-18T06:14:58;24.10;;;8.15;;
70148;SDS011;57514;52.164;5.282;2022-10-18T06:17:25;27.38;;;7.97;;
70148;SDS011;57514;52.164;5.282;2022-10-18T06:19:57;65.63;;;10.48;;
70148;SDS011;57514;52.164;5.282;2022-10-18T06:22:24;33.03;;;8.50;;
70148;SDS011;57514;52.164;5.282;2022-10-18T06:24:51;43.60;;;8.77;;
70148;SDS011;57514;52.164;5.282;2022-10-18T06:27:22;45.97;;;8.88;;
70148;SDS011;57514;52.164;5.282;2022-10-18T06:29:49;51.58;;;9.20;;
70148;SDS011;57514;52.164;5.282;2022-10-18T06:32:16;32.72;;;8.57;;
70148;SDS011;57514;52.164;5.282;2022-10-18T06:34:45;55.47;;;9.10;;
70148;SDS011;57514;52.164;5.282;2022-10-18T06:37:12;51.70;;;9.45;;
70148;SDS011;57514;52.164;5.282;2022-10-18T06:39:39;63.13;;;8.93;;
70148;SDS011;57514;52.164;5.282;2022-10-18T06:42:06;76.65;;;8.15;;
70148;SDS011;57514;52.164;5.282;2022-10-18T06:44:33;65.93;;;8.73;;
70148;SDS011;57514;52.164;5.282;2022-10-18T06:47:00;62.88;;;8.63;;
70148;SDS011;57514;52.164;5.282;2022-10-18T06:49:27;47.65;;;7.70;;
70148;SDS011;57514;52.164;5.282;2022-10-18T06:51:54;40.20;;;7.32;;
70148;SDS011;57514;52.164;5.282;2022-10-18T06:54:21;78.07;;;8.45;;
70148;SDS011;57514;52.164;5.282;2022-10-18T06:56:48;65.43;;;7.75;;
70148;SDS011;57514;52.164;5.282;2022-10-18T06:59:16;35.08;;;6.93;;
70148;SDS011;57514;52.164;5.282;2022-10-18T07:01:43;35.05;;;7.60;;
70148;SDS011;57514;52.164;5.282;2022-10-18T07:04:10;47.17;;;8.38;;
70148;SDS011;57514;52.164;5.282;2022-10-18T07:06:37;50.67;;;7.22;;
70148;SDS011;57514;52.164;5.282;2022-10-18T07:09:05;40.78;;;6.22;;
70148;SDS011;57514;52.164;5.282;2022-10-18T07:11:38;51.45;;;6.78;;
70148;SDS011;57514;52.164;5.282;2022-10-18T07:14:05;38.55;;;6.53;;
70148;SDS011;57514;52.164;5.282;2022-10-18T07:16:33;71.07;;;7.13;;
70148;SDS011;57514;52.164;5.282;2022-10-18T07:19:01;31.23;;;6.43;;
70148;SDS011;57514;52.164;5.282;2022-10-18T07:21:28;44.50;;;6.78;;
70148;SDS011;57514;52.164;5.282;2022-10-18T07:23:56;55.50;;;7.32;;
70148;SDS011;57514;52.164;5.282;2022-10-18T07:26:25;74.00;;;8.48;;
70148;SDS011;57514;52.164;5.282;2022-10-18T07:28:54;61.20;;;7.10;;
70148;SDS011;57514;52.164;5.282;2022-10-18T07:31:23;51.55;;;6.40;;
70148;SDS011;57514;52.164;5.282;2022-10-18T07:33:51;32.75;;;6.85;;
70148;SDS011;57514;52.164;5.282;2022-10-18T07:36:18;33.03;;;6.32;;
70148;SDS011;57514;52.164;5.282;2022-10-18T07:38:46;20.02;;;5.82;;
70148;SDS011;57514;52.164;5.282;2022-10-18T07:41:13;51.70;;;6.40;;
70148;SDS011;57514;52.164;5.282;2022-10-18T07:43:49;39.72;;;5.50;;
70148;SDS011;57514;52.164;5.282;2022-10-18T07:46:17;27.23;;;5.57;;
70148;SDS011;57514;52.164;5.282;2022-10-18T07:48:45;42.83;;;5.82;;
70148;SDS011;57514;52.164;5.282;2022-10-18T07:51:12;45.55;;;5.93;;
70148;SDS011;57514;52.164;5.282;2022-10-18T07:53:39;48.13;;;5.75;;
70148;SDS011;57514;52.164;5.282;2022-10-18T07:56:07;29.02;;;5.30;;
70148;SDS011;57514;52.164;5.282;2022-10-18T07:58:41;39.67;;;6.47;;
70148;SDS011;57514;52.164;5.282;2022-10-18T08:01:09;63.78;;;5.72;;
70148;SDS011;57514;52.164;5.282;2022-10-18T08:03:36;34.88;;;5.03;;
70148;SDS011;57514;52.164;5.282;2022-10-18T08:06:04;14.00;;;5.43;;
70148;SDS011;57514;52.164;5.282;2022-10-18T08:08:35;9.55;;;4.90;;
70148;SDS011;57514;52.164;5.282;2022-10-18T08:11:04;9.88;;;5.43;;
70148;SDS011;57514;52.164;5.282;2022-10-18T08:13:36;10.30;;;5.07;;
70148;SDS011;57514;52.164;5.282;2022-10-18T08:16:04;8.95;;;4.47;;
70148;SDS011;57514;52.164;5.282;2022-10-18T08:18:33;8.43;;;4.47;;
70148;SDS011;57514;52.164;5.282;2022-10-18T08:21:02;9.57;;;4.30;;
70148;SDS011;57514;52.164;5.282;2022-10-18T08:23:30;7.82;;;4.15;;
70148;SDS011;57514;52.164;5.282;2022-10-18T08:26:01;9.43;;;4.47;;
70148;SDS011;57514;52.164;5.282;2022-10-18T08:28:29;9.35;;;4.53;;
70148;SDS011;57514;52.164;5.282;2022-10-18T08:30:56;10.02;;;4.10;;
70148;SDS011;57514;52.164;5.282;2022-10-18T08:33:27;8.60;;;4.05;;
70148;SDS011;57514;52.164;5.282;2022-10-18T08:35:55;9.40;;;4.13;;
70148;SDS011;57514;52.164;5.282;2022-10-18T08:38:30;7.25;;;4.00;;
70148;SDS011;57514;52.164;5.282;2022-10-18T08:49:02;7.80;;;3.10;;
70148;SDS011;57514;52.164;5.282;2022-10-18T08:51:44;7.07;;;3.03;;
70148;SDS011;57514;52.164;5.282;2022-10-18T08:56:46;9.38;;;2.78;;
70148;SDS011;57514;52.164;5.282;2022-10-18T08:59:25;8.13;;;2.45;;
70148;SDS011;57514;52.164;5.282;2022-10-18T09:02:01;8.88;;;2.78;;
70148;SDS011;57514;52.164;5.282;2022-10-18T09:07:27;8.13;;;2.53;;
70148;SDS011;57514;52.164;5.282;2022-10-18T09:10:07;8.93;;;2.30;;
70148;SDS011;57514;52.164;5.282;2022-10-18T09:13:02;8.40;;;2.53;;
70148;SDS011;57514;52.164;5.282;2022-10-18T09:15:44;7.90;;;2.20;;
70148;SDS011;57514;52.164;5.282;2022-10-18T09:18:25;13.82;;;2.40;;
70148;SDS011;57514;52.164;5.282;2022-10-18T09:21:17;6.72;;;2.00;;
70148;SDS011;57514;52.164;5.282;2022-10-18T09:26:37;8.27;;;2.60;;
70148;SDS011;57514;52.164;5.282;2022-10-18T09:29:25;10.77;;;1.70;;
70148;SDS011;57514;52.164;5.282;2022-10-18T09:34:57;10.75;;;2.70;;
70148;SDS011;57514;52.164;5.282;2022-10-18T09:37:37;7.57;;;1.80;;
70148;SDS011;57514;52.164;5.282;2022-10-18T09:40:14;8.30;;;1.70;;
70148;SDS011;57514;52.164;5.282;2022-10-18T09:43:08;8.95;;;2.10;;
70148;SDS011;57514;52.164;5.282;2022-10-18T09:45:44;10.07;;;1.77;;
70148;SDS011;57514;52.164;5.282;2022-10-18T09:51:16;8.30;;;1.42;;
70148;SDS011;57514;52.164;5.282;2022-10-18T09:56:34;9.25;;;1.70;;
70148;SDS011;57514;52.164;5.282;2022-10-18T09:59:10;8.98;;;2.00;;
70148;SDS011;57514;52.164;5.282;2022-10-18T10:02:05;6.30;;;1.40;;
70148;SDS011;57514;52.164;5.282;2022-10-18T10:04:38;8.18;;;1.92;;
70148;SDS011;57514;52.164;5.282;2022-10-18T10:07:06;8.27;;;1.52;;
70148;SDS011;57514;52.164;5.282;2022-10-18T10:09:47;7.57;;;1.77;;
70148;SDS011;57514;52.164;5.282;2022-10-18T10:12:25;7.22;;;1.70;;
70148;SDS011;57514;52.164;5.282;2022-10-18T10:17:58;7.90;;;1.70;;
70148;SDS011;57514;52.164;5.282;2022-10-18T10:20:44;7.78;;;1.65;;
70148;SDS011;57514;52.164;5.282;2022-10-18T10:25:52;6.18;;;1.50;;
70148;SDS011;57514;52.164;5.282;2022-10-18T10:28:22;7.07;;;1.73;;
70148;SDS011;57514;52.164;5.282;2022-10-18T10:30:53;4.75;;;1.50;;
70148;SDS011;57514;52.164;5.282;2022-10-18T10:33:29;8.52;;;1.25;;
70148;SDS011;57514;52.164;5.282;2022-10-18T10:35:56;9.07;;;1.67;;
70148;SDS011;57514;52.164;5.282;2022-10-18T10:38:25;8.13;;;1.40;;
70148;SDS011;57514;52.164;5.282;2022-10-18T10:40:56;7.00;;;1.45;;
70148;SDS011;57514;52.164;5.282;2022-10-18T10:43:33;5.40;;;1.58;;
70148;SDS011;57514;52.164;5.282;2022-10-18T10:46:14;6.68;;;1.60;;
70148;SDS011;57514;52.164;5.282;2022-10-18T10:51:11;9.35;;;1.95;;
70148;SDS011;57514;52.164;5.282;2022-10-18T10:53:41;6.03;;;1.40;;
70148;SDS011;57514;52.164;5.282;2022-10-18T10:56:29;6.65;;;1.60;;
70148;SDS011;57514;52.164;5.282;2022-10-18T10:59:09;8.25;;;1.88;;
70148;SDS011;57514;52.164;5.282;2022-10-18T11:01:39;7.07;;;1.55;;
70148;SDS011;57514;52.164;5.282;2022-10-18T11:07:05;7.10;;;1.60;;
70148;SDS011;57514;52.164;5.282;2022-10-18T11:09:43;4.72;;;1.23;;
70148;SDS011;57514;52.164;5.282;2022-10-18T11:12:18;5.97;;;1.50;;
70148;SDS011;57514;52.164;5.282;2022-10-18T11:20:39;5.70;;;1.42;;
70148;SDS011;57514;52.164;5.282;2022-10-18T11:23:10;6.28;;;1.50;;
70148;SDS011;57514;52.164;5.282;2022-10-18T11:31:06;8.20;;;1.58;;
70148;SDS011;57514;52.164;5.282;2022-10-18T11:42:46;10.68;;;1.92;;
70148;SDS011;57514;52.164;5.282;2022-10-18T11:51:01;7.13;;;1.35;;
70148;SDS011;57514;52.164;5.282;2022-10-18T11:57:00;6.53;;;1.42;;
70148;SDS011;57514;52.164;5.282;2022-10-18T12:04:35;7.18;;;1.40;;
70148;SDS011;57514;52.164;5.282;2022-10-18T12:07:32;6.03;;;1.30;;
70148;SDS011;57514;52.164;5.282;2022-10-18T12:10:07;7.25;;;1.40;;
70148;SDS011;57514;52.164;5.282;2022-10-18T12:12:52;7.07;;;1.30;;
70148;SDS011;57514;52.164;5.282;2022-10-18T12:15:24;7.18;;;1.42;;
70148;SDS011;57514;52.164;5.282;2022-10-18T12:17:54;8.20;;;1.52;;
70148;SDS011;57514;52.164;5.282;2022-10-18T12:20:35;4.18;;;1.15;;
70148;SDS011;57514;52.164;5.282;2022-10-18T12:23:11;5.03;;;1.25;;
70148;SDS011;57514;52.164;5.282;2022-10-18T12:25:51;5.63;;;1.55;;
70148;SDS011;57514;52.164;5.282;2022-10-18T12:28:32;3.28;;;0.63;;
70148;SDS011;57514;52.164;5.282;2022-10-18T12:31:21;5.80;;;1.02;;
70148;SDS011;57514;52.164;5.282;2022-10-18T12:33:55;6.25;;;1.00;;
70148;SDS011;57514;52.164;5.282;2022-10-18T12:39:18;6.63;;;1.10;;
70148;SDS011;57514;52.164;5.282;2022-10-18T12:42:24;7.70;;;1.08;;
70148;SDS011;57514;52.164;5.282;2022-10-18T12:45:00;6.32;;;1.02;;
70148;SDS011;57514;52.164;5.282;2022-10-18T12:47:30;5.95;;;1.15;;
70148;SDS011;57514;52.164;5.282;2022-10-18T12:50:00;5.57;;;0.93;;
70148;SDS011;57514;52.164;5.282;2022-10-18T12:52:30;10.57;;;1.33;;
70148;SDS011;57514;52.164;5.282;2022-10-18T13:03:27;6.88;;;1.40;;
70148;SDS011;57514;52.164;5.282;2022-10-18T13:18:52;5.93;;;1.23;;
70148;SDS011;57514;52.164;5.282;2022-10-18T13:24:38;5.88;;;1.45;;
70148;SDS011;57514;52.164;5.282;2022-10-18T13:32:57;4.25;;;1.10;;
70148;SDS011;57514;52.164;5.282;2022-10-18T13:38:36;4.22;;;0.88;;
70148;SDS011;57514;52.164;5.282;2022-10-18T13:41:08;10.07;;;1.30;;
70148;SDS011;57514;52.164;5.282;2022-10-18T13:46:22;8.23;;;1.80;;
70148;SDS011;57514;52.164;5.282;2022-10-18T13:51:45;9.55;;;1.58;;
70148;SDS011;57514;52.164;5.282;2022-10-18T13:54:34;6.00;;;1.40;;
70148;SDS011;57514;52.164;5.282;2022-10-18T14:06:21;6.35;;;1.15;;
70148;SDS011;57514;52.164;5.282;2022-10-18T14:08:59;6.45;;;1.38;;
70148;SDS011;57514;52.164;5.282;2022-10-18T14:11:51;4.93;;;1.30;;
70148;SDS011;57514;52.164;5.282;2022-10-18T14:14:30;4.25;;;1.10;;
70148;SDS011;57514;52.164;5.282;2022-10-18T14:22:49;6.75;;;1.35;;
70148;SDS011;57514;52.164;5.282;2022-10-18T14:25:30;3.97;;;1.38;;
70148;SDS011;57514;52.164;5.282;2022-10-18T14:28:19;7.50;;;1.60;;
70148;SDS011;57514;52.164;5.282;2022-10-18T14:31:13;8.98;;;1.30;;
70148;SDS011;57514;52.164;5.282;2022-10-18T14:36:24;6.55;;;1.58;;
70148;SDS011;57514;52.164;5.282;2022-10-18T14:38:57;7.43;;;1.50;;
70148;SDS011;57514;52.164;5.282;2022-10-18T14:41:32;7.13;;;1.88;;
70148;SDS011;57514;52.164;5.282;2022-10-18T14:49:19;8.60;;;1.58;;
70148;SDS011;57514;52.164;5.282;2022-10-18T14:51:49;7.22;;;1.40;;
70148;SDS011;57514;52.164;5.282;2022-10-18T14:54:29;7.90;;;1.83;;
70148;SDS011;57514;52.164;5.282;2022-10-18T14:56:58;5.80;;;1.63;;
70148;SDS011;57514;52.164;5.282;2022-10-18T14:59:26;7.55;;;1.70;;
70148;SDS011;57514;52.164;5.282;2022-10-18T15:01:58;8.93;;;1.85;;
70148;SDS011;57514;52.164;5.282;2022-10-18T15:04:27;7.57;;;1.75;;
70148;SDS011;57514;52.164;5.282;2022-10-18T15:06:59;5.60;;;1.77;;
70148;SDS011;57514;52.164;5.282;2022-10-18T15:11:55;6.30;;;1.40;;
70148;SDS011;57514;52.164;5.282;2022-10-18T15:14:23;6.72;;;1.80;;
70148;SDS011;57514;52.164;5.282;2022-10-18T15:16:54;7.20;;;1.60;;
70148;SDS011;57514;52.164;5.282;2022-10-18T15:19:28;6.80;;;1.50;;
70148;SDS011;57514;52.164;5.282;2022-10-18T15:22:05;6.13;;;1.58;;
70148;SDS011;57514;52.164;5.282;2022-10-18T15:25:13;7.93;;;1.77;;
70148;SDS011;57514;52.164;5.282;2022-10-18T15:27:48;6.78;;;1.38;;
70148;SDS011;57514;52.164;5.282;2022-10-18T15:30:18;8.88;;;2.03;;
70148;SDS011;57514;52.164;5.282;2022-10-18T15:32:56;6.82;;;1.30;;
70148;SDS011;57514;52.164;5.282;2022-10-18T15:35:26;10.13;;;1.67;;
70148;SDS011;57514;52.164;5.282;2022-10-18T15:37:58;6.55;;;1.67;;
70148;SDS011;57514;52.164;5.282;2022-10-18T15:40:30;13.73;;;2.00;;
70148;SDS011;57514;52.164;5.282;2022-10-18T15:43:02;11.98;;;2.15;;
70148;SDS011;57514;52.164;5.282;2022-10-18T15:45:33;7.70;;;1.98;;
70148;SDS011;57514;52.164;5.282;2022-10-18T15:50:39;4.32;;;1.35;;
70148;SDS011;57514;52.164;5.282;2022-10-18T15:58:20;6.20;;;1.60;;
70148;SDS011;57514;52.164;5.282;2022-10-18T16:00:48;5.95;;;2.03;;
70148;SDS011;57514;52.164;5.282;2022-10-18T16:03:16;6.07;;;1.88;;
70148;SDS011;57514;52.164;5.282;2022-10-18T16:05:45;4.28;;;1.70;;
70148;SDS011;57514;52.164;5.282;2022-10-18T16:08:17;8.52;;;2.17;;
70148;SDS011;57514;52.164;5.282;2022-10-18T16:10:44;9.07;;;1.92;;
70148;SDS011;57514;52.164;5.282;2022-10-18T16:13:11;8.07;;;1.67;;
70148;SDS011;57514;52.164;5.282;2022-10-18T16:15:38;7.00;;;1.60;;
70148;SDS011;57514;52.164;5.282;2022-10-18T16:18:06;9.15;;;1.80;;
70148;SDS011;57514;52.164;5.282;2022-10-18T16:20:33;11.05;;;2.28;;
70148;SDS011;57514;52.164;5.282;2022-10-18T16:23:00;8.73;;;1.50;;
70148;SDS011;57514;52.164;5.282;2022-10-18T16:25:27;7.93;;;2.20;;
70148;SDS011;57514;52.164;5.282;2022-10-18T16:27:54;7.90;;;1.90;;
70148;SDS011;57514;52.164;5.282;2022-10-18T16:30:21;8.10;;;1.90;;
70148;SDS011;57514;52.164;5.282;2022-10-18T16:32:51;12.63;;;2.00;;
70148;SDS011;57514;52.164;5.282;2022-10-18T16:35:19;6.53;;;1.77;;
70148;SDS011;57514;52.164;5.282;2022-10-18T16:37:46;9.70;;;1.98;;
70148;SDS011;57514;52.164;5.282;2022-10-18T16:40:20;10.68;;;2.30;;
70148;SDS011;57514;52.164;5.282;2022-10-18T16:42:48;7.65;;;2.40;;
70148;SDS011;57514;52.164;5.282;2022-10-18T16:45:15;5.32;;;1.95;;
70148;SDS011;57514;52.164;5.282;2022-10-18T16:47:43;10.65;;;2.10;;
70148;SDS011;57514;52.164;5.282;2022-10-18T16:50:14;8.95;;;3.10;;
70148;SDS011;57514;52.164;5.282;2022-10-18T16:52:43;10.07;;;3.10;;
70148;SDS011;57514;52.164;5.282;2022-10-18T16:55:10;14.90;;;3.30;;
70148;SDS011;57514;52.164;5.282;2022-10-18T16:57:46;10.85;;;2.95;;
70148;SDS011;57514;52.164;5.282;2022-10-18T17:00:15;14.35;;;4.18;;
70148;SDS011;57514;52.164;5.282;2022-10-18T17:02:44;12.27;;;4.10;;
70148;SDS011;57514;52.164;5.282;2022-10-18T17:05:11;12.82;;;4.53;;
70148;SDS011;57514;52.164;5.282;2022-10-18T17:07:38;14.27;;;4.68;;
70148;SDS011;57514;52.164;5.282;2022-10-18T17:10:05;14.43;;;4.95;;
70148;SDS011;57514;52.164;5.282;2022-10-18T17:12:33;14.40;;;6.30;;
70148;SDS011;57514;52.164;5.282;2022-10-18T17:15:00;13.45;;;5.20;;
70148;SDS011;57514;52.164;5.282;2022-10-18T17:17:27;14.25;;;5.82;;
70148;SDS011;57514;52.164;5.282;2022-10-18T17:19:54;14.95;;;7.05;;
70148;SDS011;57514;52.164;5.282;2022-10-18T17:22:21;19.08;;;8.40;;
70148;SDS011;57514;52.164;5.282;2022-10-18T17:24:49;23.25;;;12.32;;
70148;SDS011;57514;52.164;5.282;2022-10-18T17:27:16;26.55;;;14.30;;
70148;SDS011;57514;52.164;5.282;2022-10-18T17:29:43;27.98;;;17.45;;
70148;SDS011;57514;52.164;5.282;2022-10-18T17:32:10;28.52;;;17.13;;
70148;SDS011;57514;52.164;5.282;2022-10-18T17:34:37;35.38;;;21.48;;
70148;SDS011;57514;52.164;5.282;2022-10-18T17:37:04;29.45;;;16.23;;
70148;SDS011;57514;52.164;5.282;2022-10-18T17:39:32;23.30;;;12.30;;
70148;SDS011;57514;52.164;5.282;2022-10-18T17:41:59;25.20;;;13.60;;
70148;SDS011;57514;52.164;5.282;2022-10-18T17:44:26;24.23;;;14.10;;
70148;SDS011;57514;52.164;5.282;2022-10-18T17:46:53;20.33;;;11.65;;